Impacts METAR Board
IDs:

KCLE - Cleveland/Hopkins In, OH, US

Updated at: 2200 UTC 21 May 2022
Potential Impact None Slight Moderate High
Time 21/10Z 21/11Z 21/12Z 21/13Z 21/14Z 21/15Z 21/16Z 21/17Z 21/18Z 21/19Z 21/20Z 21/21Z 21/22Z
Temp75 75 75 78 79 81 84 85 85 86 81 77 77
Dewpt62 62 63 64 65 65 67 67 67 67 68 66 65
Altim29.87 29.88 29.90 29.90 29.94 29.95 29.95 29.93 29.94 29.94 29.95 29.91 29.93
VIS10 10 10 10 10 10 10 10 10 10 10 10 10
CIG-- -- 250 250 60 250 41 250 140 60 44 55 40
CoverCLRFEWBKNBKNBKNBKNBKNBKNBKNBKNBKNOVCOVC
FltCatVFRVFRVFRVFRVFRVFRVFRVFRVFRVFRVFRVFRVFR
WX------------------TSTS----
WDir2102002002102002202302102102203504040
WSpd10 11 12 12 15 17 16 15 14 14 8 6 12
WGst-- -- -- -- -- -- -- -- -- -- -- -- --
Raw hourly METARs
KCLE 210951Z 21010KT 10SM CLR 24/17 A2987 RMK AO2 SLP122 T02390167 $
KCLE 211051Z 20011KT 10SM FEW180 24/17 A2988 RMK AO2 SLP125 T02390167 $
KCLE 211151Z 20012KT 10SM SCT065 BKN250 24/17 A2990 RMK AO2 SLP133 70009 T02390172 10267 20239 53014 $
KCLE 211251Z 21012KT 10SM FEW070 BKN250 26/18 A2990 RMK AO2 SLP134 T02560178 $
KCLE 211351Z 20015KT 10SM BKN060 BKN250 26/18 A2994 RMK AO2 SLP146 T02610183 $
KCLE 211451Z 22017KT 10SM FEW060 BKN250 27/18 A2995 RMK AO2 SLP151 T02720183 53017 $
KCLE 211551Z 23016KT 10SM BKN041 BKN250 29/19 A2995 RMK AO2 SLP148 T02890194 $
KCLE 211651Z 21015KT 10SM SCT042 BKN250 29/19 A2993 RMK AO2 SLP143 T02940194 $
KCLE 211751Z 21014KT 10SM SCT042 BKN140 BKN250 29/19 A2994 RMK AO2 SLP144 T02940194 10300 20239 55005 $
KCLE 211851Z 22014KT 10SM TS SCT042CB BKN060 BKN150 BKN250 30/19 A2994 RMK AO2 TSB46 SLP146 OCNL LTGICCG SW TS SW MOV NE T03000194 $
KCLE 211951Z 35008KT 10SM TS BKN044CB BKN060 BKN070 27/20 A2995 RMK AO2 WSHFT 1907 LTG DSNT NE SLP149 OCNL LTGICCC N TS N MOV NE T02720200 $
KCLE 212051Z 04006KT 10SM SCT044 BKN055 OVC120 25/19 A2991 RMK AO2 LTG DSNT E AND S AND W TSE18 SLP138 T02500189 58008 $
KCLE 212151Z 04012KT 10SM OVC040 25/18 A2993 RMK AO2 LTG DSNT SW-N RAB01E15 PRESRR SLP144 P0000 T02500183 $



Page loaded:  22:00 UTC  |   03:00 PM Pacific  |   04:00 PM Mountain  |   05:00 PM Central  |   06:00 PM Eastern

 

ADVISORIES

FORECASTS

FORECASTS

OBSERVATIONS

USER TOOLS

ABOUT US